CheckWX is a tool to help pilots better visualize weather data.  It is not intended as a substitute for an official pre-flight weather briefing.

07:35:56 UTC

KCPS TAF
St Louis Downtown Airport
Cahokia/St Louis, Illinois, USA
KCPS 190520Z 1906/2006 VRB04KT P6SM SCT060 BKN250 FM190900 VRB04KT P6SM VCSH BKN050 FM191500 22007KT P6SM VCTS BKN040CB TEMPO 1922/1924 3SM TSRA OVC030CB FM200200 26006KT P6SM BKN040

Jun-19@
06:00 UTC

Jun-19 @ 06:00 UTC

Jun-19@
09:00 UTC

Jun-19 @ 09:00 UTC

KCPS 190520Z 1906/2006 VRB04KT P6SM SCT060 BKN250
Wind
  • Variable at 4 KTS
Cloud Levels
  • Scattered at 6,000' AGL
  • Broken at 25,000' AGL

Jun-19@
09:00 UTC

Jun-19 @ 09:00 UTC

Jun-19@
15:00 UTC

Jun-19 @ 15:00 UTC

FM190900 VRB04KT P6SM VCSH BKN050

From

From Standard forecast or significant change

Wind
  • Variable at 4 KTS
Cloud Levels
  • Broken at 5,000' AGL

Jun-19@
15:00 UTC

Jun-19 @ 15:00 UTC

Jun-20@
02:00 UTC

Jun-20 @ 02:00 UTC

FM191500 22007KT P6SM VCTS BKN040CB

From

From Standard forecast or significant change

Wind
  • 220° at 7 KTS
Conditions
Area Thunderstorm
Cloud Levels
  • Broken at 4,000' AGL

Jun-19@
22:00 UTC

Jun-19 @ 22:00 UTC

Jun-20@
00:00 UTC

Jun-20 @ 00:00 UTC

TEMPO 1922/1924 3SM TSRA OVC030CB

Temporary

Temporary Changes expected for less than half the time period

Conditions
Thunderstorm, Rain
Cloud Levels
  • Overcast at 3,000' AGL

Jun-20@
02:00 UTC

Jun-20 @ 02:00 UTC

Jun-20@
06:00 UTC

Jun-20 @ 06:00 UTC

FM200200 26006KT P6SM BKN040

From

From Standard forecast or significant change

Wind
  • 260° at 6 KTS
Cloud Levels
  • Broken at 4,000' AGL